Corona Range LRC Data

Date Time Air Temperature Relative Humidity Dewpoint Windchill Heat Index Wind Speed Wind Dir. Rain Solar Radiation Soil Temperature
2m 2m 3m 3m 10cm
US/Mountain F % F F F MPH deg in MJ/m^2 F
max avg avg
2021-02-23 00:05:00 34.7 43.6 14.8 27.9 34.7 8.3 10.5 8.3 251.2 256.8 0.00 0.0000000 38.6
2021-02-23 00:10:00 33.6 45.4 14.7 28.4 33.6 5.6 8.3 6.1 251.4 250.0 0.00 0.0000000 38.6
2021-02-23 00:15:00 32.4 47.2 14.5 26.1 32.4 6.9 6.9 6.0 240.1 243.5 0.00 0.0000000 38.6
2021-02-23 00:20:00 32.1 47.8 14.5 25.7 32.1 6.7 7.2 6.5 263.2 248.9 0.00 0.0000000 38.5
2021-02-23 00:25:00 32.1 47.9 14.6 25.8 32.1 6.7 6.9 6.2 232.6 245.7 0.00 0.0000000 38.5
2021-02-23 00:30:00 31.9 48.0 14.5 25.3 31.9 7.1 7.4 6.5 231.8 239.2 0.00 0.0000000 38.4
2021-02-23 00:35:00 32.0 47.6 14.3 26.3 32.0 5.8 7.4 6.2 235.1 244.2 0.00 0.0000000 38.4
2021-02-23 00:40:00 32.1 47.6 14.5 25.8 32.1 6.7 7.6 6.4 233.0 234.7 0.00 0.0000000 38.3
2021-02-23 00:45:00 32.4 47.4 14.6 26.3 32.4 6.5 7.6 6.8 230.4 233.1 0.00 0.0000000 38.3
2021-02-23 00:50:00 33.2 45.7 14.5 27.8 33.2 5.8 7.2 6.4 236.4 236.8 0.00 0.0000000 38.2
2021-02-23 00:55:00 33.4 45.6 14.6 29.5 33.4 4.2 7.1 5.2 238.9 234.1 0.00 0.0000000 38.2
2021-02-23 01:00:00 33.1 46.2 14.6 27.8 33.1 5.6 5.6 4.8 252.5 239.6 0.00 0.0000000 38.1
2021-02-23 01:05:00 33.1 45.7 14.4 27.4 33.1 6.2 7.8 6.2 241.4 241.4 0.00 0.0000000 38.1
2021-02-23 01:10:00 33.4 45.1 14.3 27.6 33.4 6.3 7.1 6.3 242.6 239.2 0.00 0.0000000 38.0
2021-02-23 01:15:00 33.3 45.3 14.4 28.3 33.3 5.3 6.9 5.3 245.5 245.0 0.00 0.0000000 38.0
2021-02-23 01:20:00 33.2 45.4 14.3 27.8 33.2 5.8 6.3 5.4 241.9 247.1 0.00 0.0000000 37.9
2021-02-23 01:25:00 34.3 43.3 14.2 27.3 34.3 8.5 8.8 6.6 252.9 239.9 0.00 0.0000000 37.9
2021-02-23 01:30:00 35.3 41.8 14.3 30.0 35.3 6.2 9.4 7.5 238.9 249.5 0.00 0.0000000 37.8
2021-02-23 01:35:00 35.3 42.0 14.5 30.4 35.3 5.6 8.0 6.5 258.6 249.8 0.00 0.0000000 37.8
2021-02-23 01:40:00 35.3 41.8 14.3 30.4 35.3 5.6 7.2 6.0 261.3 265.2 0.00 0.0000000 37.7
2021-02-23 01:45:00 35.4 41.6 14.3 30.4 35.4 5.8 7.4 6.1 255.9 260.5 0.00 0.0000000 37.7
2021-02-23 01:50:00 35.3 41.7 14.3 29.5 35.3 6.9 7.4 6.3 260.8 263.5 0.00 0.0000000 37.7
2021-02-23 01:55:00 34.5 43.1 14.3 28.7 34.5 6.7 6.7 5.7 264.2 255.9 0.00 0.0000000 37.6
2021-02-23 02:00:00 34.2 43.4 14.3 28.0 34.2 7.2 9.0 7.4 248.2 253.6 0.00 0.0000000 37.6
2021-02-23 02:05:00 33.8 43.5 13.9 27.1 33.8 7.8 8.1 7.1 253.1 251.7 0.00 0.0000000 37.6
2021-02-23 02:10:00 34.2 43.0 14.0 28.0 34.2 7.2 8.8 7.5 252.7 251.8 0.00 0.0000000 37.5
2021-02-23 02:15:00 34.8 42.1 14.1 28.7 34.8 7.2 9.0 7.7 239.3 252.8 0.00 0.0000000 37.5
2021-02-23 02:20:00 34.8 42.3 14.1 28.3 34.8 7.8 8.7 7.2 257.5 256.4 0.00 0.0000000 37.4
2021-02-23 02:25:00 33.9 43.7 14.1 28.1 33.9 6.5 8.1 7.1 245.2 250.3 0.00 0.0000000 37.4
2021-02-23 02:30:00 33.5 44.1 13.9 27.2 33.5 7.1 8.1 7.3 243.4 247.6 0.00 0.0000000 37.4
2021-02-23 02:35:00 34.5 41.1 13.3 28.6 34.5 6.9 8.0 6.9 251.5 245.9 0.00 0.0000000 37.3
2021-02-23 02:40:00 34.8 41.3 13.6 30.5 34.8 4.7 7.1 5.4 271.4 258.2 0.00 0.0000000 37.3
2021-02-23 02:45:00 34.2 42.3 13.6 31.3 34.2 3.3 4.7 3.8 245.0 259.2 0.00 0.0000000 37.3
2021-02-23 02:50:00 33.2 43.7 13.5 29.0 33.2 4.4 4.7 4.0 249.9 249.4 0.00 0.0000000 37.2
2021-02-23 02:55:00 32.3 45.8 13.7 27.7 32.3 4.7 5.6 4.9 258.3 256.2 0.00 0.0000000 37.2
2021-02-23 03:00:00 33.9 42.0 13.2 28.5 33.9 6.0 7.1 5.9 255.1 265.3 0.00 0.0000000 37.2
2021-02-23 03:05:00 34.1 42.3 13.5 29.9 34.1 4.6 6.7 5.1 244.0 256.2 0.00 0.0000000 37.1
2021-02-23 03:10:00 33.4 43.2 13.4 28.5 33.4 5.3 6.0 4.8 242.3 244.5 0.00 0.0000000 37.1
2021-02-23 03:15:00 33.4 43.5 13.6 29.5 33.4 4.2 5.6 4.9 251.2 244.5 0.00 0.0000000 37.1
2021-02-23 03:20:00 34.8 41.0 13.5 30.2 34.8 5.1 5.8 4.8 250.2 261.7 0.00 0.0000000 37.0
2021-02-23 03:25:00 34.9 40.9 13.5 31.0 34.9 4.4 5.6 4.5 199.5 234.1 0.00 0.0000000 37.0
2021-02-23 03:30:00 34.7 40.2 12.9 31.8 34.7 3.5 4.0 3.0 145.2 178.3 0.00 0.0000000 36.9
2021-02-23 03:35:00 37.9 34.9 12.6 37.9 37.9 3.0 4.7 2.9 151.2 158.2 0.00 0.0001018 36.9
2021-02-23 03:40:00 36.6 38.4 13.6 33.6 36.6 3.8 4.6 2.6 141.5 145.8 0.00 0.0000000 36.9
2021-02-23 03:45:00 34.1 42.8 13.8 31.2 34.1 3.3 4.6 3.9 146.4 148.2 0.00 0.0000000 36.9
2021-02-23 03:50:00 33.3 43.5 13.5 33.3 33.3 1.7 3.8 2.9 172.9 149.1 0.00 0.0000000 36.8
2021-02-23 03:55:00 32.6 45.2 13.7 32.6 32.6 1.9 1.9 1.3 235.8 199.8 0.00 0.0000000 36.8
2021-02-23 04:00:00 33.3 43.9 13.7 27.5 33.3 6.3 6.5 4.5 243.7 252.7 0.00 0.0000000 36.8
2021-02-23 04:05:00 35.2 40.6 13.6 29.1 35.2 7.2 8.7 7.4 262.6 259.9 0.00 0.0000000 36.7
2021-02-23 04:10:00 36.8 37.7 13.3 30.3 36.8 8.7 10.1 8.5 254.5 260.2 0.00 0.0000000 36.7
2021-02-23 04:15:00 37.3 37.3 13.5 30.7 37.3 9.0 10.1 8.6 259.8 263.0 0.00 0.0000000 36.7
2021-02-23 04:20:00 37.1 36.9 13.2 31.1 37.1 8.0 9.4 8.2 264.5 259.1 0.00 0.0000000 36.7
2021-02-23 04:25:00 37.2 36.8 13.2 31.5 37.2 7.4 9.6 8.1 256.4 255.5 0.00 0.0000000 36.6
2021-02-23 04:30:00 36.5 37.5 13.0 31.2 36.5 6.5 8.5 7.2 257.5 250.0 0.00 0.0000000 36.6
2021-02-23 04:35:00 38.0 35.1 12.8 32.6 38.0 7.1 9.7 7.6 262.7 258.0 0.00 0.0000000 36.6
2021-02-23 04:40:00 37.5 36.4 13.2 32.1 37.5 7.1 8.3 6.9 246.1 258.8 0.00 0.0000000 36.5
2021-02-23 04:45:00 37.1 37.3 13.4 31.7 37.1 6.9 8.3 7.1 239.7 254.7 0.00 0.0000000 36.5
2021-02-23 04:50:00 36.4 38.5 13.4 30.6 36.4 7.2 8.0 7.1 246.4 248.8 0.00 0.0000000 36.5
2021-02-23 04:55:00 35.9 39.2 13.4 30.7 35.9 6.2 7.8 6.4 250.6 255.9 0.00 0.0000000 36.5
2021-02-23 05:00:00 35.4 40.2 13.5 30.1 35.4 6.2 7.1 6.2 273.7 267.1 0.00 0.0000000 36.4
2021-02-23 05:05:00 34.3 42.0 13.6 28.8 34.3 6.2 7.1 6.0 263.4 273.4 0.00 0.0000000 36.4
2021-02-23 05:10:00 34.0 42.4 13.5 28.9 34.0 5.6 7.1 6.0 261.9 276.5 0.00 0.0000000 36.4
2021-02-23 05:15:00 35.1 40.7 13.6 29.9 35.1 6.0 7.4 6.1 269.4 285.0 0.00 0.0000000 36.3
2021-02-23 05:20:00 37.5 36.9 13.5 32.9 37.5 5.8 8.5 6.5 292.7 280.4 0.00 0.0000000 36.3
2021-02-23 05:25:00 38.6 35.4 13.6 35.0 38.6 4.7 6.5 5.2 307.9 290.2 0.00 0.0000000 36.3
2021-02-23 05:30:00 38.8 35.4 13.7 35.2 38.8 4.7 6.3 5.0 293.0 296.5 0.00 0.0000000 36.3
2021-02-23 05:35:00 39.5 35.0 14.0 36.2 39.5 4.6 7.2 5.4 288.7 301.4 0.00 0.0000000 36.2
2021-02-23 05:40:00 39.1 35.5 14.1 39.1 39.1 1.9 6.5 4.1 301.5 287.1 0.00 0.0000000 36.2
2021-02-23 05:45:00 39.2 34.9 13.7 39.2 39.2 2.8 4.9 3.5 298.5 292.9 0.00 0.0000000 36.2
2021-02-23 05:50:00 39.8 34.3 13.9 39.8 39.8 2.6 5.1 3.6 309.8 294.2 0.00 0.0000000 36.2
2021-02-23 05:55:00 40.1 35.0 14.6 37.8 40.1 3.7 6.2 3.7 281.0 297.2 0.00 0.0000000 36.1
2021-02-23 06:00:00 39.2 35.7 14.2 37.3 39.2 3.1 4.9 3.4 240.2 287.2 0.00 0.0000000 36.1
2021-02-23 06:05:00 39.9 34.3 14.0 39.9 39.9 2.8 5.5 3.4 281.8 263.5 0.00 0.0000000 36.1
2021-02-23 06:10:00 39.5 35.1 14.2 39.5 39.5 2.4 3.1 2.3 312.8 302.7 0.00 0.0000000 36.1
2021-02-23 06:15:00 39.1 35.6 14.1 37.2 39.1 3.1 3.3 2.6 335.2 315.9 0.00 0.0000000 36.0
2021-02-23 06:20:00 38.1 37.2 14.3 33.9 38.1 5.5 5.5 4.0 337.6 337.3 0.00 0.0000000 36.0
2021-02-23 06:25:00 37.3 38.7 14.4 34.5 37.3 3.7 5.8 4.7 306.5 312.1 0.00 0.0000000 36.0
2021-02-23 06:30:00 35.5 42.1 14.7 32.9 35.5 3.3 5.6 4.3 296.1 306.5 0.00 0.0000000 36.0
2021-02-23 06:35:00 34.9 42.7 14.5 30.4 34.9 5.1 5.8 4.7 304.7 308.2 0.00 0.0000000 35.9
2021-02-23 06:40:00 34.5 44.1 14.9 30.9 34.5 4.0 6.2 5.0 308.5 308.3 0.00 0.0002999 35.9
2021-02-23 06:45:00 33.3 46.7 15.1 29.0 33.3 4.6 5.6 4.4 308.2 292.8 0.00 0.0034334 35.9
2021-02-23 06:50:00 33.0 48.0 15.4 29.4 33.0 3.8 5.6 3.9 325.8 302.6 0.00 0.0036047 35.9
2021-02-23 06:55:00 33.9 45.2 14.8 28.3 33.9 6.2 6.5 4.7 296.3 298.2 0.00 0.0089625 35.9
2021-02-23 07:00:00 35.7 42.6 15.2 33.1 35.7 3.3 5.6 4.1 311.7 300.8 0.00 0.0136920 35.8
2021-02-23 07:05:00 36.6 41.8 15.5 31.4 36.6 6.5 6.5 3.6 230.3 275.6 0.00 0.0170412 35.8
2021-02-23 07:10:00 41.6 33.6 15.0 35.6 41.6 9.9 11.0 8.3 237.9 236.1 0.00 0.0221989 35.8
2021-02-23 07:15:00 43.6 30.5 14.6 37.2 43.6 12.6 13.1 10.1 244.3 237.7 0.00 0.0251729 35.8
2021-02-23 07:20:00 44.4 29.5 14.5 38.4 44.4 11.7 14.6 10.5 237.5 238.0 0.00 0.0284395 35.8
2021-02-23 07:25:00 45.1 28.7 14.5 40.2 45.1 9.2 14.2 10.6 236.8 237.4 0.00 0.0304707 35.7
2021-02-23 07:30:00 45.7 27.5 14.0 39.0 45.7 15.3 15.3 11.3 238.2 238.6 0.00 0.0317925 35.7
2021-02-23 07:35:00 46.2 27.4 14.3 41.3 46.2 9.9 13.7 11.4 260.0 240.2 0.00 0.0339884 35.7
2021-02-23 07:40:00 46.6 27.0 14.3 41.8 46.6 9.9 13.7 9.7 261.3 248.4 0.00 0.0369880 35.7
2021-02-23 07:45:00 46.6 27.4 14.7 42.7 46.6 7.8 13.1 10.8 249.8 257.2 0.00 0.0406059 35.7
2021-02-23 07:50:00 46.9 27.1 14.7 42.6 46.9 8.8 12.2 9.2 236.2 259.8 0.00 0.0447439 35.7
2021-02-23 07:55:00 47.3 27.7 15.5 43.4 47.3 8.0 10.8 7.4 248.6 256.3 0.00 0.0485155 35.6
2021-02-23 08:00:00 47.4 27.2 15.2 43.1 47.4 9.2 11.5 8.8 258.3 256.1 0.00 0.0493139 35.6
2021-02-23 08:05:00 47.9 26.2 14.8 43.4 47.9 10.3 12.2 10.1 258.6 258.8 0.00 0.0550335 35.6
2021-02-23 08:10:00 48.6 26.3 15.5 45.3 48.6 7.4 12.6 10.3 254.6 252.2 0.00 0.0611252 35.6
2021-02-23 08:15:00 49.3 25.3 15.2 44.7 49.3 11.3 12.6 10.1 250.5 253.7 0.00 0.0703077 35.6
2021-02-23 08:20:00 50.4 23.9 14.8 50.4 50.4 9.7 14.2 10.6 250.6 254.9 0.00 0.0784309 35.5
2021-02-23 08:25:00 51.8 22.5 14.6 51.8 51.8 9.7 13.9 10.8 259.6 250.1 0.00 0.0721501 35.5
2021-02-23 08:30:00 51.8 21.2 13.3 51.8 51.8 16.5 20.3 13.6 217.5 243.2 0.00 0.0591618 35.5
2021-02-23 08:35:00 52.1 20.3 12.6 52.1 52.1 16.4 19.4 14.9 252.4 251.3 0.00 0.0676716 35.5
2021-02-23 08:40:00 53.2 19.3 12.3 53.2 53.2 14.9 15.6 11.7 236.0 244.6 0.00 0.0716695 35.5
2021-02-23 08:45:00 53.3 20.0 13.2 53.3 53.3 11.5 17.4 13.1 258.6 255.5 0.00 0.0838626 35.5
2021-02-23 08:50:00 53.0 19.7 12.5 53.0 53.0 15.5 15.6 12.1 238.3 251.7 0.00 0.0506166 35.5
2021-02-23 08:55:00 52.1 19.9 12.0 52.1 52.1 14.4 17.1 13.9 248.5 251.0 0.00 0.0409845 35.5
2021-02-23 09:00:00 52.1 19.7 11.9 52.1 52.1 16.0 19.9 13.6 223.2 248.0 0.00 0.0489763 35.4
2021-02-23 09:05:00 52.2 19.6 11.8 52.2 52.2 14.4 19.2 14.0 239.6 244.4 0.00 0.0590406 35.4
2021-02-23 09:10:00 53.2 19.2 12.2 53.2 53.2 14.0 15.5 11.9 224.3 232.7 0.00 0.0764654 35.4
2021-02-23 09:15:00 51.7 20.2 12.0 51.7 51.7 15.8 20.6 16.0 246.9 232.6 0.00 0.0599671 35.4
2021-02-23 09:20:00 51.4 20.1 11.8 51.4 51.4 18.5 21.5 16.2 224.8 232.2 0.00 0.0566873 35.4
2021-02-23 09:25:00 51.4 20.9 12.6 51.4 51.4 11.7 21.0 16.7 225.1 232.5 0.00 0.0611058 35.4
2021-02-23 09:30:00 51.6 20.2 12.0 51.6 51.6 15.6 21.5 15.5 237.9 240.0 0.00 0.0605508 35.4
2021-02-23 09:35:00 52.2 20.1 12.4 52.2 52.2 13.7 21.2 16.4 239.0 237.9 0.00 0.0750816 35.4
2021-02-23 09:40:00 53.1 18.8 11.6 53.1 53.1 19.9 19.9 13.6 246.1 250.2 0.00 0.0757692 35.4
2021-02-23 09:45:00 52.6 19.1 11.6 52.6 52.6 16.4 19.4 15.9 258.3 244.2 0.00 0.0631413 35.5
2021-02-23 09:50:00 52.8 18.9 11.5 52.8 52.8 16.4 20.3 15.8 232.1 242.4 0.00 0.0573776 35.5
2021-02-23 09:55:00 52.6 18.9 11.4 52.6 52.6 18.3 21.4 18.2 252.7 240.4 0.00 0.0578537 35.5
2021-02-23 10:00:00 52.4 18.7 11.0 52.4 52.4 19.9 23.5 19.0 233.5 244.0 0.00 0.0645697 35.6
2021-02-23 10:05:00 52.7 18.8 11.3 52.7 52.7 18.3 25.1 20.1 239.5 240.9 0.00 0.0818120 35.7
2021-02-23 10:10:00 53.2 18.6 11.5 53.2 53.2 17.4 24.0 19.9 226.2 238.8 0.00 0.0982557 35.7
2021-02-23 10:15:00 53.6 18.3 11.4 53.6 53.6 23.2 27.4 19.5 241.4 240.2 0.00 0.1065970 35.8
2021-02-23 10:20:00 54.1 18.1 11.6 54.1 54.1 17.8 22.8 17.0 257.9 245.0 0.00 0.1005256 35.9
2021-02-23 10:25:00 54.7 16.9 10.5 54.7 54.7 22.1 25.3 18.5 227.4 239.7 0.00 0.1074231 36.0
2021-02-23 10:30:00 55.4 16.8 10.9 55.4 55.4 18.3 23.5 19.9 244.7 238.9 0.00 0.1244187 36.1
2021-02-23 10:35:00 56.4 15.8 10.4 56.4 56.4 19.9 25.1 19.9 239.5 237.1 0.00 0.1416256 36.1
2021-02-23 10:40:00 56.8 15.5 10.3 56.8 56.8 17.8 25.1 21.0 253.4 236.7 0.00 0.1319286 36.2
2021-02-23 10:45:00 56.9 14.7 9.2 56.9 56.9 20.1 27.6 20.3 256.2 248.3 0.00 0.1305494 36.4
2021-02-23 10:50:00 55.5 16.2 10.2 55.5 55.5 16.2 24.9 19.5 270.0 249.6 0.00 0.0773425 36.5
2021-02-23 10:55:00 54.6 16.6 10.1 54.6 54.6 22.6 25.5 18.5 242.1 240.4 0.00 0.0625562 36.6
2021-02-23 11:00:00 54.5 16.5 9.9 54.5 54.5 18.1 30.1 20.0 255.4 247.9 0.00 0.0796242 36.7
2021-02-23 11:05:00 55.4 15.6 9.3 55.4 55.4 27.1 28.1 20.1 230.1 248.3 0.00 0.0941248 36.8
2021-02-23 11:10:00 55.0 15.6 9.0 55.0 55.0 20.8 28.5 22.6 260.1 255.3 0.00 0.0912275 36.9
2021-02-23 11:15:00 56.0 14.1 7.5 56.0 56.0 26.9 30.5 24.9 249.3 249.0 0.00 0.1216337 37.1
2021-02-23 11:20:00 55.3 14.7 7.9 55.3 55.3 23.5 30.1 24.7 263.1 246.9 0.00 0.0871049 37.2
2021-02-23 11:25:00 55.1 15.0 8.1 55.1 55.1 19.4 27.8 20.2 227.8 238.2 0.00 0.0656354 37.3
2021-02-23 11:30:00 54.9 14.6 7.5 54.9 54.9 25.5 28.3 23.7 234.2 239.4 0.00 0.0673294 37.5
2021-02-23 11:35:00 55.6 13.0 5.5 55.6 55.6 24.6 28.5 22.5 249.0 240.9 0.00 0.0778262 37.6
2021-02-23 11:40:00 56.0 12.5 4.9 56.0 56.0 24.8 31.7 26.2 252.7 248.8 0.00 0.0914483 37.7
2021-02-23 11:45:00 56.5 12.9 6.0 56.5 56.5 21.2 29.6 24.2 242.5 246.3 0.00 0.1100597 37.9
2021-02-23 11:50:00 55.7 12.9 5.4 55.7 55.7 24.6 31.4 23.6 253.7 237.2 0.00 0.0615461 38.0
2021-02-23 11:55:00 55.1 12.9 5.0 55.1 55.1 23.5 29.6 24.0 241.5 238.6 0.00 0.0506622 38.2
2021-02-23 12:00:00 55.4 13.6 6.3 55.4 55.4 23.2 30.6 21.9 239.8 247.7 0.00 0.0457614 38.3
2021-02-23 12:05:00 56.9 12.6 5.7 56.9 56.9 21.0 26.9 22.8 250.1 238.5 0.00 0.0872176 38.4
2021-02-23 12:10:00 58.2 12.6 6.8 58.2 58.2 19.4 30.8 23.1 272.0 254.2 0.00 0.1605203 38.6
2021-02-23 12:15:00 57.5 12.6 6.3 57.5 57.5 26.9 26.9 22.5 220.2 239.8 0.00 0.0999563 38.7
2021-02-23 12:20:00 57.2 12.5 5.8 57.2 57.2 18.9 29.4 21.6 272.0 252.6 0.00 0.1031066 38.8
2021-02-23 12:25:00 58.6 11.7 5.6 58.6 58.6 21.9 29.2 23.8 251.1 245.3 0.00 0.1660367 39.0
2021-02-23 12:30:00 57.6 12.3 5.8 57.6 57.6 24.9 28.1 21.9 243.6 247.0 0.00 0.1029308 39.1
2021-02-23 12:35:00 57.3 12.5 5.9 57.3 57.3 27.2 27.2 22.3 231.3 244.6 0.00 0.1035027 39.2
2021-02-23 12:40:00 56.5 12.2 4.8 56.5 56.5 21.5 31.4 25.1 243.3 242.2 0.00 0.0826374 39.3
2021-02-23 12:45:00 58.1 11.4 4.4 58.1 58.1 18.3 27.4 21.9 249.2 252.7 0.00 0.1346544 39.5
2021-02-23 12:50:00 56.0 12.4 4.9 56.0 56.0 22.6 24.8 20.7 250.0 254.8 0.00 0.0426053 39.6
2021-02-23 12:55:00 56.3 11.7 3.6 56.3 56.3 22.3 24.8 19.8 238.2 245.9 0.00 0.0479519 39.7
2021-02-23 13:00:00 59.1 12.1 6.6 59.1 59.1 16.5 27.2 21.0 243.8 249.5 0.00 0.1492608 39.8
2021-02-23 13:05:00 59.8 12.0 7.0 59.8 59.8 16.2 27.2 20.4 261.6 249.9 0.00 0.1666052 40.0
2021-02-23 13:10:00 59.4 12.1 6.9 59.4 59.4 16.7 26.7 22.1 269.7 254.3 0.00 0.1549964 40.1
2021-02-23 13:15:00 59.2 11.5 5.6 59.2 59.2 18.5 29.0 22.1 245.2 241.5 0.00 0.1222426 40.3
2021-02-23 13:20:00 60.7 11.7 7.1 60.7 60.7 16.0 24.4 19.4 230.0 247.7 0.00 0.1590343 40.4
2021-02-23 13:25:00 59.7 11.5 6.0 59.7 59.7 19.8 30.5 21.9 266.3 238.4 0.00 0.1569319 40.5
2021-02-23 13:30:00 58.4 11.8 5.5 58.4 58.4 23.5 29.0 24.2 228.5 243.1 0.00 0.1065112 40.6
2021-02-23 13:35:00 59.3 10.9 4.6 59.3 59.3 20.3 26.9 21.4 253.2 246.0 0.00 0.1410996 40.8
2021-02-23 13:40:00 59.9 12.0 7.1 59.9 59.9 17.1 25.5 21.1 254.6 251.8 0.00 0.1488737 40.9
2021-02-23 13:45:00 60.4 11.5 6.5 60.4 60.4 23.0 24.2 19.9 248.6 260.4 0.00 0.1419782 41.0
2021-02-23 13:50:00 60.6 11.1 5.9 60.6 60.6 24.6 26.2 19.0 233.4 247.9 0.00 0.1386520 41.2
2021-02-23 13:55:00 59.6 11.2 5.3 59.6 59.6 22.8 31.4 22.6 245.1 246.6 0.00 0.1343845 41.3
2021-02-23 14:00:00 60.3 11.2 6.0 60.3 60.3 22.8 24.9 19.1 249.0 255.1 0.00 0.1337571 41.4
2021-02-23 14:05:00 60.4 11.9 7.2 60.4 60.4 15.6 22.8 18.1 250.2 251.9 0.00 0.1324639 41.6
2021-02-23 14:10:00 60.3 11.0 5.5 60.3 60.3 20.1 26.4 21.1 226.8 250.9 0.00 0.1324599 41.7
2021-02-23 14:15:00 60.4 11.2 6.0 60.4 60.4 18.0 26.5 20.7 235.4 248.9 0.00 0.1190791 41.9
2021-02-23 14:20:00 60.0 10.7 4.8 60.0 60.0 21.2 23.0 19.3 269.3 260.4 0.00 0.1151452 42.0
2021-02-23 14:25:00 59.1 11.5 5.6 59.1 59.1 18.0 24.9 19.9 272.0 253.0 0.00 0.1061953 42.2
2021-02-23 14:30:00 60.4 11.0 5.6 60.4 60.4 17.4 21.7 17.3 228.0 254.8 0.00 0.1299116 42.3
2021-02-23 14:35:00 60.4 11.4 6.3 60.4 60.4 17.4 23.0 17.2 241.3 247.4 0.00 0.0975029 42.4
2021-02-23 14:40:00 60.3 10.3 4.1 60.3 60.3 22.8 22.8 17.2 231.0 240.3 0.00 0.0858040 42.6
2021-02-23 14:45:00 60.7 11.2 6.3 60.7 60.7 10.3 21.5 17.3 239.8 244.3 0.00 0.1165410 42.7
2021-02-23 14:50:00 61.3 10.3 4.7 61.3 61.3 22.8 25.8 18.8 224.6 232.8 0.00 0.1172627 42.9
2021-02-23 14:55:00 60.8 11.2 6.2 60.8 60.8 13.9 28.0 21.4 241.3 233.8 0.00 0.1136315 43.0
2021-02-23 15:00:00 60.5 11.2 6.0 60.5 60.5 18.3 28.3 22.2 244.0 236.7 0.00 0.0907145 43.1
2021-02-23 15:05:00 61.7 10.3 5.2 61.7 61.7 21.0 23.2 17.2 219.6 242.6 0.00 0.1029155 43.3
2021-02-23 15:10:00 60.1 10.7 4.9 60.1 60.1 24.8 24.8 20.0 263.9 239.5 0.00 0.0727633 43.4
2021-02-23 15:15:00 58.8 11.7 5.7 58.8 58.8 15.5 26.9 21.1 256.8 249.0 0.00 0.0402999 43.6
2021-02-23 15:20:00 59.0 11.9 6.1 59.0 59.0 21.5 23.5 18.5 261.3 242.2 0.00 0.0645274 43.7
2021-02-23 15:25:00 60.4 11.9 7.4 60.4 60.4 14.6 24.8 18.3 227.6 240.5 0.00 0.1058439 43.8
2021-02-23 15:30:00 60.9 11.6 7.1 60.9 60.9 12.2 18.9 15.6 236.1 244.4 0.00 0.0839865 43.9
2021-02-23 15:35:00 61.6 10.7 5.9 61.6 61.6 14.2 23.3 15.2 261.9 242.5 0.00 0.0969147 44.1
2021-02-23 15:40:00 61.5 10.7 5.8 61.5 61.5 14.4 24.2 17.2 251.0 247.6 0.00 0.0895952 44.2
2021-02-23 15:45:00 60.8 10.6 5.0 60.8 60.8 16.2 23.9 19.5 262.5 247.9 0.00 0.0837045 44.3
2021-02-23 15:50:00 61.0 11.2 6.4 61.0 61.0 13.9 22.6 16.7 229.0 245.2 0.00 0.0762237 44.4
2021-02-23 15:55:00 60.1 11.4 6.2 60.1 60.1 19.4 23.2 18.3 249.1 239.8 0.00 0.0564652 44.5
2021-02-23 16:00:00 58.8 12.0 6.2 58.8 58.8 17.6 24.9 19.8 249.7 237.7 0.00 0.0353162 44.6
2021-02-23 16:05:00 59.1 12.4 7.1 59.1 59.1 15.6 24.2 17.5 238.0 244.8 0.00 0.0527957 44.7
2021-02-23 16:10:00 58.4 12.7 7.1 58.4 58.4 20.8 21.9 17.9 230.0 231.3 0.00 0.0484666 44.8
2021-02-23 16:15:00 58.1 13.0 7.5 58.1 58.1 14.7 23.3 18.5 232.9 230.3 0.00 0.0494446 44.9
2021-02-23 16:20:00 58.5 13.0 7.7 58.5 58.5 15.1 24.8 18.0 248.6 233.1 0.00 0.0650029 45.0
2021-02-23 16:25:00 57.4 13.5 7.8 57.4 57.4 16.0 17.8 14.7 257.2 242.1 0.00 0.0255184 45.1
2021-02-23 16:30:00 56.8 13.7 7.6 56.8 56.8 12.4 19.6 15.2 269.3 254.4 0.00 0.0190561 45.2
2021-02-23 16:35:00 57.0 14.0 8.2 57.0 57.0 12.4 16.5 12.2 250.1 249.6 0.00 0.0206826 45.2
2021-02-23 16:40:00 56.5 14.0 7.8 56.5 56.5 14.0 18.3 14.6 237.3 241.2 0.00 0.0182478 45.3
2021-02-23 16:45:00 56.0 14.1 7.6 56.0 56.0 17.6 17.6 14.3 228.1 236.9 0.00 0.0146445 45.4
2021-02-23 16:50:00 56.2 14.3 8.0 56.2 56.2 17.1 20.1 15.7 232.3 240.5 0.00 0.0228816 45.4
2021-02-23 16:55:00 55.7 14.6 8.1 55.7 55.7 17.2 20.8 15.6 246.8 236.0 0.00 0.0137806 45.5
2021-02-23 17:00:00 55.5 14.7 8.0 55.5 55.5 14.4 19.2 15.1 229.0 240.8 0.00 0.0174704 45.5
2021-02-23 17:05:00 55.9 14.7 8.3 55.9 55.9 13.0 16.9 13.0 225.5 238.1 0.00 0.0213889 45.5
2021-02-23 17:10:00 55.6 14.8 8.3 55.6 55.6 12.1 17.8 14.3 228.2 240.5 0.00 0.0130528 45.6
2021-02-23 17:15:00 55.3 15.1 8.5 55.3 55.3 11.0 13.0 10.0 263.4 238.0 0.00 0.0145590 45.6
2021-02-23 17:20:00 55.3 15.3 8.9 55.3 55.3 10.6 13.3 10.5 225.5 235.3 0.00 0.0147726 45.6
2021-02-23 17:25:00 55.2 14.9 8.2 55.2 55.2 14.2 14.7 10.1 234.0 239.7 0.00 0.0128023 45.6
2021-02-23 17:30:00 55.1 15.0 8.3 55.1 55.1 8.3 14.6 10.6 241.2 237.0 0.00 0.0125178 45.6
2021-02-23 17:35:00 55.0 14.9 8.1 55.0 55.0 6.5 11.5 8.4 233.1 243.2 0.00 0.0129113 45.6
2021-02-23 17:40:00 54.6 14.6 7.2 54.6 54.6 8.5 11.3 7.3 258.1 237.4 0.00 0.0052754 45.6
2021-02-23 17:45:00 54.2 15.0 7.5 54.2 54.2 8.8 12.8 9.4 212.8 241.5 0.00 0.0012020 45.6
2021-02-23 17:50:00 54.1 14.8 7.1 54.1 54.1 8.7 18.5 12.3 239.8 236.7 0.00 0.0000000 45.6
2021-02-23 17:55:00 53.3 15.6 7.6 53.3 53.3 7.6 11.9 9.7 237.4 231.0 0.00 0.0000000 45.6
2021-02-23 18:00:00 52.9 15.7 7.4 52.9 52.9 13.3 14.0 10.7 228.2 231.1 0.00 0.0000000 45.5
2021-02-23 18:05:00 52.9 16.0 7.8 52.9 52.9 7.8 13.7 10.0 223.0 227.7 0.00 0.0000000 45.5
2021-02-23 18:10:00 52.2 16.2 7.6 52.2 52.2 9.0 13.0 8.8 215.4 225.1 0.00 0.0000000 45.5
2021-02-23 18:15:00 52.3 16.4 7.9 52.3 52.3 8.7 12.8 9.7 231.7 227.9 0.00 0.0000000 45.5
2021-02-23 18:20:00 51.5 17.0 8.0 51.5 51.5 9.2 10.3 8.1 232.1 229.5 0.00 0.0000000 45.4
2021-02-23 18:25:00 50.9 17.4 8.1 50.9 50.9 10.6 10.6 7.1 236.1 231.8 0.00 0.0000000 45.4
2021-02-23 18:30:00 50.7 17.6 8.2 50.7 50.7 8.5 11.3 7.7 234.0 240.0 0.00 0.0000000 45.4
2021-02-23 18:35:00 51.0 17.6 8.4 51.0 51.0 7.2 10.6 8.3 237.9 240.5 0.00 0.0000000 45.3
2021-02-23 18:40:00 50.7 17.4 7.9 50.7 50.7 10.6 10.6 8.2 246.5 242.8 0.00 0.0000000 45.3
2021-02-23 18:45:00 50.4 17.5 7.8 50.4 50.4 9.9 11.9 8.2 237.2 247.6 0.00 0.0000000 45.2
2021-02-23 18:50:00 50.0 18.0 8.2 50.0 50.0 7.1 10.3 7.5 234.7 246.1 0.00 0.0000000 45.2
2021-02-23 18:55:00 50.3 17.7 8.0 50.3 50.3 8.0 10.1 8.3 244.0 241.8 0.00 0.0000000 45.1
2021-02-23 19:00:00 50.3 17.7 8.0 50.3 50.3 9.0 11.7 9.3 252.8 242.8 0.00 0.0000000 45.1
2021-02-23 19:05:00 50.4 17.6 8.0 50.4 50.4 8.3 11.7 9.1 250.2 244.9 0.00 0.0000000 45.0
2021-02-23 19:10:00 49.8 18.0 7.9 46.5 49.8 8.1 10.6 8.5 242.8 249.6 0.00 0.0000000 44.9
2021-02-23 19:15:00 49.5 17.9 7.5 46.6 49.5 6.9 11.2 7.8 270.8 254.6 0.00 0.0000000 44.9
2021-02-23 19:20:00 48.3 18.6 7.4 45.9 48.3 5.6 7.6 6.1 239.9 246.4 0.00 0.0000000 44.8
2021-02-23 19:25:00 47.2 19.2 7.2 44.5 47.2 5.6 6.2 5.2 232.3 235.0 0.00 0.0000000 44.8
2021-02-23 19:30:00 47.0 18.6 6.3 42.9 47.0 8.5 8.5 5.9 230.2 237.8 0.00 0.0000000 44.7
2021-02-23 19:35:00 48.2 17.9 6.4 44.8 48.2 7.2 9.2 7.1 251.4 244.8 0.00 0.0000000 44.6
2021-02-23 19:40:00 50.7 16.0 6.1 50.7 50.7 11.0 15.8 10.2 261.2 249.9 0.00 0.0000000 44.6
2021-02-23 19:45:00 51.6 15.4 6.0 51.6 51.6 11.2 13.3 10.7 252.9 253.4 0.00 0.0000000 44.5
2021-02-23 19:50:00 51.7 15.5 6.2 51.7 51.7 9.4 14.4 11.0 246.5 248.1 0.00 0.0000000 44.5
2021-02-23 19:55:00 51.8 15.6 6.4 51.8 51.8 9.7 18.5 11.5 245.8 240.0 0.00 0.0000000 44.4
2021-02-23 20:00:00 51.8 15.7 6.6 51.8 51.8 9.6 14.6 11.4 268.6 242.3 0.00 0.0000000 44.3
2021-02-23 20:05:00 51.4 15.5 5.9 51.4 51.4 12.1 15.8 11.1 242.3 242.5 0.00 0.0000000 44.3
2021-02-23 20:10:00 51.2 15.6 5.8 51.2 51.2 11.0 15.1 10.9 238.2 249.5 0.00 0.0000000 44.2
2021-02-23 20:15:00 51.6 15.1 5.5 51.6 51.6 12.8 18.0 12.0 259.2 250.6 0.00 0.0000000 44.1
2021-02-23 20:20:00 51.3 15.7 6.2 51.3 51.3 10.1 18.1 11.8 269.1 253.2 0.00 0.0000000 44.0
2021-02-23 20:25:00 51.2 16.2 6.7 51.2 51.2 11.0 16.0 12.1 257.7 252.2 0.00 0.0000000 44.0
2021-02-23 20:30:00 51.0 16.7 7.2 51.0 51.0 12.1 16.2 12.5 245.7 248.6 0.00 0.0000000 43.9
2021-02-23 20:35:00 50.6 17.5 8.0 50.6 50.6 11.2 15.5 11.9 286.7 254.1 0.00 0.0000000 43.9
2021-02-23 20:40:00 50.2 18.3 8.6 50.2 50.2 10.6 17.8 11.2 253.3 253.3 0.00 0.0000000 43.8
2021-02-23 20:45:00 50.2 18.3 8.7 50.2 50.2 10.6 13.1 11.0 248.6 255.1 0.00 0.0000000 43.7
2021-02-23 20:50:00 49.9 18.8 9.0 46.6 49.9 8.0 11.7 9.2 288.8 261.6 0.00 0.0000000 43.7
2021-02-23 20:55:00 50.4 18.6 9.2 50.4 50.4 13.9 15.1 11.6 254.4 260.0 0.00 0.0000000 43.6
2021-02-23 21:00:00 50.4 18.9 9.5 50.4 50.4 16.4 16.4 12.9 241.7 255.8 0.00 0.0000000 43.6
2021-02-23 21:05:00 49.9 19.6 9.8 44.9 49.9 13.3 14.2 11.7 242.4 247.9 0.00 0.0000000 43.5
2021-02-23 21:10:00 49.6 19.8 9.9 44.7 49.6 12.6 13.1 11.1 257.4 249.6 0.00 0.0000000 43.4
2021-02-23 21:15:00 49.1 20.2 9.9 44.4 49.1 11.3 13.0 10.6 255.9 244.4 0.00 0.0000000 43.4
2021-02-23 21:20:00 48.7 20.8 10.2 44.5 48.7 9.7 11.9 9.5 237.0 237.1 0.00 0.0000000 43.3
2021-02-23 21:25:00 48.5 21.0 10.2 44.6 48.5 8.7 12.2 9.6 238.9 236.7 0.00 0.0000000 43.3
2021-02-23 21:30:00 48.2 21.1 10.1 44.0 48.2 9.4 13.7 9.5 247.7 237.2 0.00 0.0000000 43.2
2021-02-23 21:35:00 47.9 21.6 10.5 44.5 47.9 7.4 11.9 9.0 243.5 241.1 0.00 0.0000000 43.2
2021-02-23 21:40:00 47.5 21.9 10.4 44.1 47.5 7.2 11.7 9.1 242.7 238.8 0.00 0.0000000 43.1
2021-02-23 21:45:00 46.9 22.5 10.5 43.5 46.9 6.9 9.6 8.0 235.5 242.9 0.00 0.0000000 43.1
2021-02-23 21:50:00 46.1 23.2 10.6 41.8 46.1 8.5 11.3 8.7 254.1 239.5 0.00 0.0000000 43.0
2021-02-23 21:55:00 45.3 24.0 10.5 41.6 45.3 6.7 8.8 7.1 239.8 240.2 0.00 0.0000000 43.0
2021-02-23 22:00:00 44.9 24.3 10.5 40.8 44.9 7.4 8.3 7.0 242.2 246.2 0.00 0.0000000 42.9
2021-02-23 22:05:00 44.5 24.2 10.1 40.1 44.5 8.0 9.6 7.3 252.4 249.3 0.00 0.0000000 42.9
2021-02-23 22:10:00 44.7 24.7 10.7 40.5 44.7 7.4 8.1 7.0 249.9 247.6 0.00 0.0000000 42.8
2021-02-23 22:15:00 44.1 24.9 10.4 39.7 44.1 7.6 7.8 6.6 256.2 247.6 0.00 0.0000000 42.8
2021-02-23 22:20:00 46.5 22.6 10.2 42.2 46.5 8.5 14.2 9.7 259.8 257.8 0.00 0.0000000 42.7
2021-02-23 22:25:00 46.9 22.6 10.7 43.1 46.9 7.8 13.7 10.3 287.8 262.6 0.00 0.0000000 42.7
2021-02-23 22:30:00 46.3 23.1 10.6 41.6 46.3 9.7 13.1 9.9 257.0 265.3 0.00 0.0000000 42.6
2021-02-23 22:35:00 46.1 23.1 10.4 42.1 46.1 8.0 12.6 9.6 271.7 272.3 0.00 0.0000000 42.6
2021-02-23 22:40:00 46.7 22.3 10.1 41.9 46.7 10.1 14.4 10.3 273.5 273.0 0.00 0.0000000 42.5
2021-02-23 22:45:00 46.5 22.7 10.3 41.5 46.5 10.5 13.7 10.5 266.4 272.3 0.00 0.0000000 42.4
2021-02-23 22:50:00 46.5 22.5 10.2 42.7 46.5 7.6 13.3 10.1 270.3 266.8 0.00 0.0000000 42.4
2021-02-23 22:55:00 46.0 23.1 10.3 41.8 46.0 8.1 11.3 8.8 282.3 267.3 0.00 0.0000000 42.3
2021-02-23 23:00:00 45.3 23.5 10.1 40.9 45.3 8.3 9.0 7.4 256.1 262.7 0.00 0.0000000 42.3
2021-02-23 23:05:00 44.6 24.2 10.2 40.6 44.6 7.2 7.4 6.5 258.8 262.3 0.00 0.0000000 42.2
2021-02-23 23:10:00 44.3 24.5 10.2 40.6 44.3 6.5 7.6 6.7 268.7 263.9 0.00 0.0000000 42.2
2021-02-23 23:15:00 44.1 24.6 10.1 41.0 44.1 5.3 7.2 6.1 253.9 266.2 0.00 0.0000000 42.1
2021-02-23 23:20:00 43.3 25.3 10.1 40.4 43.3 4.9 6.2 5.5 265.8 260.7 0.00 0.0000000 42.1
2021-02-23 23:25:00 43.1 25.6 10.2 40.2 43.1 4.9 5.8 5.1 245.0 264.3 0.00 0.0000000 42.0
2021-02-23 23:30:00 42.7 25.8 10.0 39.7 42.7 4.9 5.5 4.7 257.5 257.2 0.00 0.0000000 42.0
2021-02-23 23:35:00 42.7 25.8 10.0 39.8 42.7 4.7 5.8 4.7 276.0 263.9 0.00 0.0000000 41.9
2021-02-23 23:40:00 42.7 26.0 10.1 39.6 42.7 4.9 4.9 4.5 271.6 279.3 0.00 0.0000000 41.9
2021-02-23 23:45:00 43.1 25.6 10.2 39.5 43.1 5.8 6.2 5.3 251.4 270.1 0.00 0.0000000 41.8
2021-02-23 23:50:00 43.8 24.7 9.9 40.4 43.8 5.6 8.3 5.7 253.1 257.1 0.00 0.0000000 41.8
2021-02-23 23:55:00 44.9 23.7 10.0 41.0 44.9 7.1 9.0 6.6 259.6 262.6 0.00 0.0000000 41.7
2021-02-24 00:00:00 45.6 23.4 10.3 42.1 45.6 6.5 10.5 6.7 248.2 271.0 0.00 0.0000000 41.7

Data is courtesy of the NM Climate Center. DO NOT USE IN LEGAL PROCEEDINGS.